sensor_id;sensor_type;location;lat;lon;timestamp;P1;durP1;ratioP1;P2;durP2;ratioP2
6828;SDS011;17930;48.592;8.868;2024-03-06T00:00:22;4.73;;;2.27;;
6828;SDS011;17930;48.592;8.868;2024-03-06T00:02:49;2.93;;;2.00;;
6828;SDS011;17930;48.592;8.868;2024-03-06T00:05:16;4.17;;;2.13;;
6828;SDS011;17930;48.592;8.868;2024-03-06T00:07:44;4.20;;;1.80;;
6828;SDS011;17930;48.592;8.868;2024-03-06T00:10:11;3.00;;;2.00;;
6828;SDS011;17930;48.592;8.868;2024-03-06T00:12:38;3.58;;;2.13;;
6828;SDS011;17930;48.592;8.868;2024-03-06T00:15:06;4.33;;;2.03;;
6828;SDS011;17930;48.592;8.868;2024-03-06T00:17:33;2.83;;;1.87;;
6828;SDS011;17930;48.592;8.868;2024-03-06T00:20:00;2.53;;;1.80;;
6828;SDS011;17930;48.592;8.868;2024-03-06T00:22:26;4.63;;;2.10;;
6828;SDS011;17930;48.592;8.868;2024-03-06T00:24:54;3.73;;;2.00;;
6828;SDS011;17930;48.592;8.868;2024-03-06T00:27:21;3.13;;;1.65;;
6828;SDS011;17930;48.592;8.868;2024-03-06T00:29:48;2.30;;;1.77;;
6828;SDS011;17930;48.592;8.868;2024-03-06T00:32:14;3.03;;;1.87;;
6828;SDS011;17930;48.592;8.868;2024-03-06T00:34:41;3.80;;;2.27;;
6828;SDS011;17930;48.592;8.868;2024-03-06T00:37:08;3.08;;;1.58;;
6828;SDS011;17930;48.592;8.868;2024-03-06T00:39:35;2.97;;;2.00;;
6828;SDS011;17930;48.592;8.868;2024-03-06T00:42:03;6.57;;;2.23;;
6828;SDS011;17930;48.592;8.868;2024-03-06T00:44:30;1.93;;;1.60;;
6828;SDS011;17930;48.592;8.868;2024-03-06T00:46:56;4.70;;;2.27;;
6828;SDS011;17930;48.592;8.868;2024-03-06T00:49:23;2.63;;;1.80;;
6828;SDS011;17930;48.592;8.868;2024-03-06T00:51:50;3.90;;;1.97;;
6828;SDS011;17930;48.592;8.868;2024-03-06T00:54:16;1.80;;;1.60;;
6828;SDS011;17930;48.592;8.868;2024-03-06T00:56:43;2.50;;;1.92;;
6828;SDS011;17930;48.592;8.868;2024-03-06T00:59:11;3.57;;;2.10;;
6828;SDS011;17930;48.592;8.868;2024-03-06T01:01:38;2.73;;;2.13;;
6828;SDS011;17930;48.592;8.868;2024-03-06T01:04:05;2.57;;;1.87;;
6828;SDS011;17930;48.592;8.868;2024-03-06T01:06:31;2.70;;;1.97;;
6828;SDS011;17930;48.592;8.868;2024-03-06T01:08:58;3.17;;;2.00;;
6828;SDS011;17930;48.592;8.868;2024-03-06T01:11:25;3.73;;;2.00;;
6828;SDS011;17930;48.592;8.868;2024-03-06T01:13:52;2.50;;;1.67;;
6828;SDS011;17930;48.592;8.868;2024-03-06T01:16:21;4.20;;;2.20;;
6828;SDS011;17930;48.592;8.868;2024-03-06T01:18:48;4.95;;;2.55;;
6828;SDS011;17930;48.592;8.868;2024-03-06T01:21:15;2.92;;;1.60;;
6828;SDS011;17930;48.592;8.868;2024-03-06T01:23:41;6.22;;;2.25;;
6828;SDS011;17930;48.592;8.868;2024-03-06T01:26:08;2.40;;;2.00;;
6828;SDS011;17930;48.592;8.868;2024-03-06T01:28:35;4.30;;;2.03;;
6828;SDS011;17930;48.592;8.868;2024-03-06T01:31:02;3.17;;;2.25;;
6828;SDS011;17930;48.592;8.868;2024-03-06T01:33:30;3.92;;;2.17;;
6828;SDS011;17930;48.592;8.868;2024-03-06T01:35:57;4.03;;;2.45;;
6828;SDS011;17930;48.592;8.868;2024-03-06T01:38:24;3.88;;;2.13;;
6828;SDS011;17930;48.592;8.868;2024-03-06T01:40:50;7.80;;;2.95;;
6828;SDS011;17930;48.592;8.868;2024-03-06T01:43:18;3.92;;;2.58;;
6828;SDS011;17930;48.592;8.868;2024-03-06T01:45:47;4.40;;;2.22;;
6828;SDS011;17930;48.592;8.868;2024-03-06T01:48:15;3.27;;;2.70;;
6828;SDS011;17930;48.592;8.868;2024-03-06T01:50:43;4.72;;;2.33;;
6828;SDS011;17930;48.592;8.868;2024-03-06T01:53:11;3.17;;;2.38;;
6828;SDS011;17930;48.592;8.868;2024-03-06T01:55:38;2.17;;;1.88;;
6828;SDS011;17930;48.592;8.868;2024-03-06T01:58:05;5.65;;;2.28;;
6828;SDS011;17930;48.592;8.868;2024-03-06T02:00:32;3.83;;;2.55;;
6828;SDS011;17930;48.592;8.868;2024-03-06T02:03:00;4.80;;;2.42;;
6828;SDS011;17930;48.592;8.868;2024-03-06T02:05:27;3.55;;;2.15;;
6828;SDS011;17930;48.592;8.868;2024-03-06T02:07:57;3.70;;;2.65;;
6828;SDS011;17930;48.592;8.868;2024-03-06T02:10:25;3.17;;;2.13;;
6828;SDS011;17930;48.592;8.868;2024-03-06T02:12:52;3.00;;;2.30;;
6828;SDS011;17930;48.592;8.868;2024-03-06T02:15:19;3.80;;;2.45;;
6828;SDS011;17930;48.592;8.868;2024-03-06T02:17:46;4.70;;;2.22;;
6828;SDS011;17930;48.592;8.868;2024-03-06T02:20:13;4.50;;;2.40;;
6828;SDS011;17930;48.592;8.868;2024-03-06T02:22:42;3.60;;;2.22;;
6828;SDS011;17930;48.592;8.868;2024-03-06T02:25:09;3.67;;;2.38;;
6828;SDS011;17930;48.592;8.868;2024-03-06T02:27:37;2.57;;;2.00;;
6828;SDS011;17930;48.592;8.868;2024-03-06T02:30:04;4.68;;;2.60;;
6828;SDS011;17930;48.592;8.868;2024-03-06T02:32:31;4.22;;;2.50;;
6828;SDS011;17930;48.592;8.868;2024-03-06T02:34:58;2.77;;;2.23;;
6828;SDS011;17930;48.592;8.868;2024-03-06T02:37:27;4.10;;;2.80;;
6828;SDS011;17930;48.592;8.868;2024-03-06T02:39:55;4.03;;;2.13;;
6828;SDS011;17930;48.592;8.868;2024-03-06T02:42:21;9.17;;;3.27;;
6828;SDS011;17930;48.592;8.868;2024-03-06T02:44:48;5.53;;;2.80;;
6828;SDS011;17930;48.592;8.868;2024-03-06T02:47:15;3.63;;;2.35;;
6828;SDS011;17930;48.592;8.868;2024-03-06T02:49:41;7.30;;;2.90;;
6828;SDS011;17930;48.592;8.868;2024-03-06T02:52:08;5.60;;;2.50;;
6828;SDS011;17930;48.592;8.868;2024-03-06T02:54:35;4.28;;;2.65;;
6828;SDS011;17930;48.592;8.868;2024-03-06T02:57:03;4.00;;;2.40;;
6828;SDS011;17930;48.592;8.868;2024-03-06T02:59:30;4.32;;;2.35;;
6828;SDS011;17930;48.592;8.868;2024-03-06T03:01:56;3.80;;;2.40;;
6828;SDS011;17930;48.592;8.868;2024-03-06T03:04:23;3.03;;;2.40;;
6828;SDS011;17930;48.592;8.868;2024-03-06T03:06:50;3.83;;;2.33;;
6828;SDS011;17930;48.592;8.868;2024-03-06T03:09:17;5.03;;;2.47;;
6828;SDS011;17930;48.592;8.868;2024-03-06T03:11:43;3.83;;;2.27;;
6828;SDS011;17930;48.592;8.868;2024-03-06T03:14:11;3.53;;;2.20;;
6828;SDS011;17930;48.592;8.868;2024-03-06T03:16:38;6.37;;;2.70;;
6828;SDS011;17930;48.592;8.868;2024-03-06T03:19:04;3.13;;;2.27;;
6828;SDS011;17930;48.592;8.868;2024-03-06T03:21:33;3.45;;;2.45;;
6828;SDS011;17930;48.592;8.868;2024-03-06T03:24:00;4.43;;;2.35;;
6828;SDS011;17930;48.592;8.868;2024-03-06T03:26:27;4.20;;;2.20;;
6828;SDS011;17930;48.592;8.868;2024-03-06T03:28:54;3.88;;;2.10;;
6828;SDS011;17930;48.592;8.868;2024-03-06T03:31:22;3.65;;;2.70;;
6828;SDS011;17930;48.592;8.868;2024-03-06T03:33:49;4.78;;;2.90;;
6828;SDS011;17930;48.592;8.868;2024-03-06T03:36:15;3.17;;;2.53;;
6828;SDS011;17930;48.592;8.868;2024-03-06T03:38:42;4.32;;;3.00;;
6828;SDS011;17930;48.592;8.868;2024-03-06T03:41:08;5.97;;;2.90;;
6828;SDS011;17930;48.592;8.868;2024-03-06T03:43:37;5.25;;;3.35;;
6828;SDS011;17930;48.592;8.868;2024-03-06T03:46:05;5.45;;;3.10;;
6828;SDS011;17930;48.592;8.868;2024-03-06T03:48:33;4.30;;;2.40;;
6828;SDS011;17930;48.592;8.868;2024-03-06T03:51:02;4.85;;;2.67;;
6828;SDS011;17930;48.592;8.868;2024-03-06T03:53:30;3.65;;;2.45;;
6828;SDS011;17930;48.592;8.868;2024-03-06T03:55:56;3.83;;;2.90;;
6828;SDS011;17930;48.592;8.868;2024-03-06T03:58:23;7.90;;;3.47;;
6828;SDS011;17930;48.592;8.868;2024-03-06T04:00:49;3.80;;;2.92;;
6828;SDS011;17930;48.592;8.868;2024-03-06T04:03:18;4.03;;;3.20;;
6828;SDS011;17930;48.592;8.868;2024-03-06T04:05:46;4.93;;;3.00;;
6828;SDS011;17930;48.592;8.868;2024-03-06T04:08:13;5.00;;;3.10;;
6828;SDS011;17930;48.592;8.868;2024-03-06T04:10:41;3.70;;;3.10;;
6828;SDS011;17930;48.592;8.868;2024-03-06T04:13:08;5.10;;;3.35;;
6828;SDS011;17930;48.592;8.868;2024-03-06T04:15:34;6.00;;;3.83;;
6828;SDS011;17930;48.592;8.868;2024-03-06T04:18:01;3.92;;;3.05;;
6828;SDS011;17930;48.592;8.868;2024-03-06T04:20:28;4.43;;;3.00;;
6828;SDS011;17930;48.592;8.868;2024-03-06T04:22:56;4.83;;;3.10;;
6828;SDS011;17930;48.592;8.868;2024-03-06T04:25:22;3.78;;;2.75;;
6828;SDS011;17930;48.592;8.868;2024-03-06T04:27:50;4.77;;;3.33;;
6828;SDS011;17930;48.592;8.868;2024-03-06T04:30:16;4.35;;;3.22;;
6828;SDS011;17930;48.592;8.868;2024-03-06T04:32:43;4.18;;;2.90;;
6828;SDS011;17930;48.592;8.868;2024-03-06T04:35:10;6.75;;;3.28;;
6828;SDS011;17930;48.592;8.868;2024-03-06T04:37:37;8.52;;;3.20;;
6828;SDS011;17930;48.592;8.868;2024-03-06T04:40:06;6.88;;;2.78;;
6828;SDS011;17930;48.592;8.868;2024-03-06T04:42:34;5.40;;;2.80;;
6828;SDS011;17930;48.592;8.868;2024-03-06T04:45:02;3.30;;;2.55;;
6828;SDS011;17930;48.592;8.868;2024-03-06T04:47:29;4.77;;;3.20;;
6828;SDS011;17930;48.592;8.868;2024-03-06T04:49:57;4.15;;;3.22;;
6828;SDS011;17930;48.592;8.868;2024-03-06T04:52:24;5.20;;;2.58;;
6828;SDS011;17930;48.592;8.868;2024-03-06T04:54:51;4.43;;;3.08;;
6828;SDS011;17930;48.592;8.868;2024-03-06T04:57:19;5.30;;;3.33;;
6828;SDS011;17930;48.592;8.868;2024-03-06T04:59:46;5.70;;;3.30;;
6828;SDS011;17930;48.592;8.868;2024-03-06T05:02:12;6.50;;;3.10;;
6828;SDS011;17930;48.592;8.868;2024-03-06T05:04:39;5.27;;;3.60;;
6828;SDS011;17930;48.592;8.868;2024-03-06T05:07:06;5.17;;;2.97;;
6828;SDS011;17930;48.592;8.868;2024-03-06T05:09:33;4.73;;;2.97;;
6828;SDS011;17930;48.592;8.868;2024-03-06T05:12:00;5.87;;;3.33;;
6828;SDS011;17930;48.592;8.868;2024-03-06T05:14:28;7.67;;;4.13;;
6828;SDS011;17930;48.592;8.868;2024-03-06T05:16:55;5.00;;;3.40;;
6828;SDS011;17930;48.592;8.868;2024-03-06T05:19:22;5.28;;;3.20;;
6828;SDS011;17930;48.592;8.868;2024-03-06T05:21:52;5.37;;;3.47;;
6828;SDS011;17930;48.592;8.868;2024-03-06T05:24:19;4.32;;;3.47;;
6828;SDS011;17930;48.592;8.868;2024-03-06T05:26:46;6.87;;;3.87;;
6828;SDS011;17930;48.592;8.868;2024-03-06T05:29:13;5.45;;;3.33;;
6828;SDS011;17930;48.592;8.868;2024-03-06T05:31:42;5.32;;;3.47;;
6828;SDS011;17930;48.592;8.868;2024-03-06T05:34:09;8.95;;;3.85;;
6828;SDS011;17930;48.592;8.868;2024-03-06T05:36:36;6.97;;;3.90;;
6828;SDS011;17930;48.592;8.868;2024-03-06T05:39:02;7.00;;;4.25;;
6828;SDS011;17930;48.592;8.868;2024-03-06T05:41:30;5.33;;;3.93;;
6828;SDS011;17930;48.592;8.868;2024-03-06T05:43:57;6.45;;;4.20;;
6828;SDS011;17930;48.592;8.868;2024-03-06T05:46:24;6.72;;;3.83;;
6828;SDS011;17930;48.592;8.868;2024-03-06T05:48:52;6.57;;;4.28;;
6828;SDS011;17930;48.592;8.868;2024-03-06T05:51:19;6.47;;;3.23;;
6828;SDS011;17930;48.592;8.868;2024-03-06T05:53:46;7.43;;;3.85;;
6828;SDS011;17930;48.592;8.868;2024-03-06T05:56:12;4.70;;;3.47;;
6828;SDS011;17930;48.592;8.868;2024-03-06T05:58:39;8.60;;;3.65;;
6828;SDS011;17930;48.592;8.868;2024-03-06T06:01:06;6.20;;;3.80;;
6828;SDS011;17930;48.592;8.868;2024-03-06T06:03:33;8.03;;;3.87;;
6828;SDS011;17930;48.592;8.868;2024-03-06T06:06:01;8.57;;;4.30;;
6828;SDS011;17930;48.592;8.868;2024-03-06T06:08:28;8.27;;;4.35;;
6828;SDS011;17930;48.592;8.868;2024-03-06T06:10:55;6.90;;;4.00;;
6828;SDS011;17930;48.592;8.868;2024-03-06T06:13:21;6.82;;;3.70;;
6828;SDS011;17930;48.592;8.868;2024-03-06T06:15:48;6.43;;;4.00;;
6828;SDS011;17930;48.592;8.868;2024-03-06T06:18:15;7.33;;;3.90;;
6828;SDS011;17930;48.592;8.868;2024-03-06T06:20:41;7.80;;;4.17;;
6828;SDS011;17930;48.592;8.868;2024-03-06T06:23:09;7.10;;;3.50;;
6828;SDS011;17930;48.592;8.868;2024-03-06T06:25:36;8.70;;;3.60;;
6828;SDS011;17930;48.592;8.868;2024-03-06T06:28:03;6.33;;;3.70;;
6828;SDS011;17930;48.592;8.868;2024-03-06T06:30:30;6.70;;;3.97;;
6828;SDS011;17930;48.592;8.868;2024-03-06T06:32:58;5.03;;;3.60;;
6828;SDS011;17930;48.592;8.868;2024-03-06T06:35:24;5.83;;;3.67;;
6828;SDS011;17930;48.592;8.868;2024-03-06T06:37:52;6.87;;;3.30;;
6828;SDS011;17930;48.592;8.868;2024-03-06T06:40:20;6.77;;;4.20;;
6828;SDS011;17930;48.592;8.868;2024-03-06T06:42:47;7.83;;;3.70;;
6828;SDS011;17930;48.592;8.868;2024-03-06T06:45:16;5.53;;;3.93;;
6828;SDS011;17930;48.592;8.868;2024-03-06T06:47:43;8.33;;;3.83;;
6828;SDS011;17930;48.592;8.868;2024-03-06T06:50:10;7.53;;;4.47;;
6828;SDS011;17930;48.592;8.868;2024-03-06T06:52:37;7.22;;;3.90;;
6828;SDS011;17930;48.592;8.868;2024-03-06T06:55:04;7.75;;;3.97;;
6828;SDS011;17930;48.592;8.868;2024-03-06T06:57:33;8.95;;;3.63;;
6828;SDS011;17930;48.592;8.868;2024-03-06T07:00:00;5.90;;;3.50;;
6828;SDS011;17930;48.592;8.868;2024-03-06T07:02:28;8.40;;;5.43;;
6828;SDS011;17930;48.592;8.868;2024-03-06T07:04:55;6.75;;;4.05;;
6828;SDS011;17930;48.592;8.868;2024-03-06T07:07:22;7.93;;;4.72;;
6828;SDS011;17930;48.592;8.868;2024-03-06T07:09:49;33.05;;;15.93;;
6828;SDS011;17930;48.592;8.868;2024-03-06T07:12:15;9.48;;;5.43;;
6828;SDS011;17930;48.592;8.868;2024-03-06T07:14:43;34.97;;;17.23;;
6828;SDS011;17930;48.592;8.868;2024-03-06T07:17:10;39.35;;;20.75;;
6828;SDS011;17930;48.592;8.868;2024-03-06T07:19:37;21.95;;;12.77;;
6828;SDS011;17930;48.592;8.868;2024-03-06T07:22:04;15.80;;;8.90;;
6828;SDS011;17930;48.592;8.868;2024-03-06T07:24:31;12.48;;;6.63;;
6828;SDS011;17930;48.592;8.868;2024-03-06T07:26:58;10.07;;;5.25;;
6828;SDS011;17930;48.592;8.868;2024-03-06T07:29:26;7.78;;;4.43;;
6828;SDS011;17930;48.592;8.868;2024-03-06T07:31:54;7.47;;;5.20;;
6828;SDS011;17930;48.592;8.868;2024-03-06T07:34:21;6.57;;;4.33;;
6828;SDS011;17930;48.592;8.868;2024-03-06T07:36:48;10.50;;;4.30;;
6828;SDS011;17930;48.592;8.868;2024-03-06T07:39:15;6.75;;;3.90;;
6828;SDS011;17930;48.592;8.868;2024-03-06T07:41:42;5.33;;;3.23;;
6828;SDS011;17930;48.592;8.868;2024-03-06T07:44:08;8.07;;;3.90;;
6828;SDS011;17930;48.592;8.868;2024-03-06T07:46:35;6.15;;;4.10;;
6828;SDS011;17930;48.592;8.868;2024-03-06T07:49:03;6.00;;;3.70;;
6828;SDS011;17930;48.592;8.868;2024-03-06T07:51:31;7.10;;;3.80;;
6828;SDS011;17930;48.592;8.868;2024-03-06T07:53:58;5.93;;;3.97;;
6828;SDS011;17930;48.592;8.868;2024-03-06T07:56:25;5.53;;;3.50;;
6828;SDS011;17930;48.592;8.868;2024-03-06T07:58:53;6.57;;;3.23;;
6828;SDS011;17930;48.592;8.868;2024-03-06T08:01:20;7.23;;;3.43;;
6828;SDS011;17930;48.592;8.868;2024-03-06T08:03:47;9.23;;;4.00;;
6828;SDS011;17930;48.592;8.868;2024-03-06T08:06:15;7.87;;;4.17;;
6828;SDS011;17930;48.592;8.868;2024-03-06T08:08:42;7.43;;;3.67;;
6828;SDS011;17930;48.592;8.868;2024-03-06T08:11:10;6.13;;;3.53;;
6828;SDS011;17930;48.592;8.868;2024-03-06T08:13:37;5.17;;;3.33;;
6828;SDS011;17930;48.592;8.868;2024-03-06T08:16:04;5.97;;;2.70;;
6828;SDS011;17930;48.592;8.868;2024-03-06T08:18:31;7.77;;;3.17;;
6828;SDS011;17930;48.592;8.868;2024-03-06T08:20:58;5.53;;;3.20;;
6828;SDS011;17930;48.592;8.868;2024-03-06T08:23:27;5.73;;;3.00;;
6828;SDS011;17930;48.592;8.868;2024-03-06T08:25:54;3.73;;;2.53;;
6828;SDS011;17930;48.592;8.868;2024-03-06T08:28:20;9.43;;;3.10;;
6828;SDS011;17930;48.592;8.868;2024-03-06T08:30:47;5.63;;;2.33;;
6828;SDS011;17930;48.592;8.868;2024-03-06T08:33:14;4.23;;;3.03;;
6828;SDS011;17930;48.592;8.868;2024-03-06T08:35:42;7.53;;;2.93;;
6828;SDS011;17930;48.592;8.868;2024-03-06T08:38:09;5.90;;;2.60;;
6828;SDS011;17930;48.592;8.868;2024-03-06T08:40:37;3.67;;;2.33;;
6828;SDS011;17930;48.592;8.868;2024-03-06T08:43:04;3.53;;;2.80;;
6828;SDS011;17930;48.592;8.868;2024-03-06T08:45:31;4.67;;;2.40;;
6828;SDS011;17930;48.592;8.868;2024-03-06T08:47:57;6.23;;;2.80;;
6828;SDS011;17930;48.592;8.868;2024-03-06T08:50:24;5.53;;;3.23;;
6828;SDS011;17930;48.592;8.868;2024-03-06T08:52:51;5.00;;;2.90;;
6828;SDS011;17930;48.592;8.868;2024-03-06T08:55:19;4.80;;;2.80;;
6828;SDS011;17930;48.592;8.868;2024-03-06T08:57:46;3.57;;;2.30;;
6828;SDS011;17930;48.592;8.868;2024-03-06T09:00:15;5.17;;;2.57;;
6828;SDS011;17930;48.592;8.868;2024-03-06T09:02:42;4.80;;;2.83;;
6828;SDS011;17930;48.592;8.868;2024-03-06T09:05:09;3.73;;;2.50;;
6828;SDS011;17930;48.592;8.868;2024-03-06T09:07:38;4.03;;;2.23;;
6828;SDS011;17930;48.592;8.868;2024-03-06T09:10:06;7.63;;;3.17;;
6828;SDS011;17930;48.592;8.868;2024-03-06T09:12:33;4.37;;;2.50;;
6828;SDS011;17930;48.592;8.868;2024-03-06T09:15:02;4.47;;;2.10;;
6828;SDS011;17930;48.592;8.868;2024-03-06T09:17:30;4.10;;;2.20;;
6828;SDS011;17930;48.592;8.868;2024-03-06T09:19:56;3.53;;;2.20;;
6828;SDS011;17930;48.592;8.868;2024-03-06T09:22:23;4.50;;;2.00;;
6828;SDS011;17930;48.592;8.868;2024-03-06T09:24:50;3.30;;;2.47;;
6828;SDS011;17930;48.592;8.868;2024-03-06T09:27:17;6.13;;;1.90;;
6828;SDS011;17930;48.592;8.868;2024-03-06T09:29:43;4.33;;;1.93;;
6828;SDS011;17930;48.592;8.868;2024-03-06T09:32:11;3.10;;;1.67;;
6828;SDS011;17930;48.592;8.868;2024-03-06T09:34:41;2.73;;;1.97;;
6828;SDS011;17930;48.592;8.868;2024-03-06T09:37:08;3.13;;;2.00;;
6828;SDS011;17930;48.592;8.868;2024-03-06T09:39:34;4.07;;;1.93;;
6828;SDS011;17930;48.592;8.868;2024-03-06T09:42:01;2.87;;;2.07;;
6828;SDS011;17930;48.592;8.868;2024-03-06T09:44:28;2.90;;;1.90;;
6828;SDS011;17930;48.592;8.868;2024-03-06T09:46:56;3.27;;;2.03;;
6828;SDS011;17930;48.592;8.868;2024-03-06T09:49:30;4.43;;;2.30;;
6828;SDS011;17930;48.592;8.868;2024-03-06T09:51:57;2.87;;;1.80;;
6828;SDS011;17930;48.592;8.868;2024-03-06T09:54:26;3.93;;;2.40;;
6828;SDS011;17930;48.592;8.868;2024-03-06T09:56:54;5.10;;;2.17;;
6828;SDS011;17930;48.592;8.868;2024-03-06T09:59:22;4.83;;;2.90;;
6828;SDS011;17930;48.592;8.868;2024-03-06T10:01:49;7.80;;;2.87;;
6828;SDS011;17930;48.592;8.868;2024-03-06T10:04:21;7.83;;;2.87;;
6828;SDS011;17930;48.592;8.868;2024-03-06T10:06:52;3.90;;;2.90;;
6828;SDS011;17930;48.592;8.868;2024-03-06T10:09:20;5.53;;;3.10;;
6828;SDS011;17930;48.592;8.868;2024-03-06T10:11:47;3.10;;;2.10;;
6828;SDS011;17930;48.592;8.868;2024-03-06T10:14:14;4.47;;;2.50;;
6828;SDS011;17930;48.592;8.868;2024-03-06T10:16:51;4.10;;;2.70;;
6828;SDS011;17930;48.592;8.868;2024-03-06T10:19:18;6.03;;;2.87;;
6828;SDS011;17930;48.592;8.868;2024-03-06T10:21:46;3.07;;;2.40;;
6828;SDS011;17930;48.592;8.868;2024-03-06T10:24:17;4.37;;;2.87;;
6828;SDS011;17930;48.592;8.868;2024-03-06T10:26:45;5.90;;;3.23;;
6828;SDS011;17930;48.592;8.868;2024-03-06T10:29:14;3.30;;;2.67;;
6828;SDS011;17930;48.592;8.868;2024-03-06T10:31:46;4.17;;;3.20;;
6828;SDS011;17930;48.592;8.868;2024-03-06T10:34:14;4.87;;;3.40;;
6828;SDS011;17930;48.592;8.868;2024-03-06T10:36:40;6.60;;;3.77;;
6828;SDS011;17930;48.592;8.868;2024-03-06T10:39:08;7.43;;;3.63;;
6828;SDS011;17930;48.592;8.868;2024-03-06T10:41:40;8.83;;;4.30;;
6828;SDS011;17930;48.592;8.868;2024-03-06T10:44:09;6.30;;;4.07;;
6828;SDS011;17930;48.592;8.868;2024-03-06T10:46:39;6.47;;;4.30;;
6828;SDS011;17930;48.592;8.868;2024-03-06T10:49:09;6.53;;;4.23;;
6828;SDS011;17930;48.592;8.868;2024-03-06T10:51:37;6.30;;;4.57;;
6828;SDS011;17930;48.592;8.868;2024-03-06T10:54:07;5.77;;;5.17;;
6828;SDS011;17930;48.592;8.868;2024-03-06T10:56:35;8.57;;;5.40;;
6828;SDS011;17930;48.592;8.868;2024-03-06T10:59:03;8.27;;;5.13;;
6828;SDS011;17930;48.592;8.868;2024-03-06T11:01:30;7.93;;;5.03;;
6828;SDS011;17930;48.592;8.868;2024-03-06T11:03:58;8.50;;;5.43;;
6828;SDS011;17930;48.592;8.868;2024-03-06T11:06:26;8.13;;;5.87;;
6828;SDS011;17930;48.592;8.868;2024-03-06T11:08:53;10.83;;;5.83;;
6828;SDS011;17930;48.592;8.868;2024-03-06T11:11:20;10.47;;;5.23;;
6828;SDS011;17930;48.592;8.868;2024-03-06T11:13:48;8.83;;;5.70;;
6828;SDS011;17930;48.592;8.868;2024-03-06T11:16:16;10.57;;;6.37;;
6828;SDS011;17930;48.592;8.868;2024-03-06T11:18:43;9.20;;;6.20;;
6828;SDS011;17930;48.592;8.868;2024-03-06T11:21:29;8.83;;;6.00;;
6828;SDS011;17930;48.592;8.868;2024-03-06T11:24:13;8.93;;;6.73;;
6828;SDS011;17930;48.592;8.868;2024-03-06T11:26:42;7.53;;;4.97;;
6828;SDS011;17930;48.592;8.868;2024-03-06T11:29:09;6.40;;;5.17;;
6828;SDS011;17930;48.592;8.868;2024-03-06T11:31:37;7.63;;;5.87;;
6828;SDS011;17930;48.592;8.868;2024-03-06T11:34:04;7.60;;;5.43;;
6828;SDS011;17930;48.592;8.868;2024-03-06T11:36:31;8.47;;;6.07;;
6828;SDS011;17930;48.592;8.868;2024-03-06T11:39:04;8.73;;;5.80;;
6828;SDS011;17930;48.592;8.868;2024-03-06T11:41:45;9.60;;;7.20;;
6828;SDS011;17930;48.592;8.868;2024-03-06T11:44:14;8.83;;;7.43;;
6828;SDS011;17930;48.592;8.868;2024-03-06T11:46:44;7.67;;;6.20;;
6828;SDS011;17930;48.592;8.868;2024-03-06T11:49:15;11.90;;;6.80;;
6828;SDS011;17930;48.592;8.868;2024-03-06T11:51:46;20.87;;;13.60;;
6828;SDS011;17930;48.592;8.868;2024-03-06T11:54:13;11.33;;;6.83;;
6828;SDS011;17930;48.592;8.868;2024-03-06T11:56:40;11.90;;;7.80;;
6828;SDS011;17930;48.592;8.868;2024-03-06T11:59:07;10.07;;;6.50;;
6828;SDS011;17930;48.592;8.868;2024-03-06T12:01:34;10.30;;;7.23;;
6828;SDS011;17930;48.592;8.868;2024-03-06T12:04:03;9.93;;;7.10;;
6828;SDS011;17930;48.592;8.868;2024-03-06T12:06:31;10.67;;;7.40;;
6828;SDS011;17930;48.592;8.868;2024-03-06T12:08:59;12.10;;;7.97;;
6828;SDS011;17930;48.592;8.868;2024-03-06T12:11:26;11.53;;;7.00;;
6828;SDS011;17930;48.592;8.868;2024-03-06T12:13:53;12.83;;;7.27;;
6828;SDS011;17930;48.592;8.868;2024-03-06T12:16:21;13.60;;;8.47;;
6828;SDS011;17930;48.592;8.868;2024-03-06T12:18:53;13.73;;;7.60;;
6828;SDS011;17930;48.592;8.868;2024-03-06T12:21:24;10.00;;;6.83;;
6828;SDS011;17930;48.592;8.868;2024-03-06T12:24:01;10.87;;;7.00;;
6828;SDS011;17930;48.592;8.868;2024-03-06T12:26:29;14.20;;;7.87;;
6828;SDS011;17930;48.592;8.868;2024-03-06T12:29:03;12.23;;;7.70;;
6828;SDS011;17930;48.592;8.868;2024-03-06T12:31:31;12.30;;;8.07;;
6828;SDS011;17930;48.592;8.868;2024-03-06T12:33:58;13.63;;;7.87;;
6828;SDS011;17930;48.592;8.868;2024-03-06T12:36:29;9.77;;;6.40;;
6828;SDS011;17930;48.592;8.868;2024-03-06T12:38:56;10.37;;;6.80;;
6828;SDS011;17930;48.592;8.868;2024-03-06T12:41:25;12.87;;;7.90;;
6828;SDS011;17930;48.592;8.868;2024-03-06T12:43:53;11.53;;;6.90;;
6828;SDS011;17930;48.592;8.868;2024-03-06T12:46:20;12.53;;;8.30;;
6828;SDS011;17930;48.592;8.868;2024-03-06T12:48:47;15.30;;;8.17;;
6828;SDS011;17930;48.592;8.868;2024-03-06T12:51:14;13.70;;;8.33;;
6828;SDS011;17930;48.592;8.868;2024-03-06T12:53:42;15.13;;;8.93;;
6828;SDS011;17930;48.592;8.868;2024-03-06T12:56:08;13.77;;;8.17;;
6828;SDS011;17930;48.592;8.868;2024-03-06T12:58:36;15.83;;;9.50;;
6828;SDS011;17930;48.592;8.868;2024-03-06T13:01:03;16.30;;;8.67;;
6828;SDS011;17930;48.592;8.868;2024-03-06T13:03:30;16.27;;;9.80;;
6828;SDS011;17930;48.592;8.868;2024-03-06T13:06:00;15.07;;;9.17;;
6828;SDS011;17930;48.592;8.868;2024-03-06T13:08:27;13.67;;;8.60;;
6828;SDS011;17930;48.592;8.868;2024-03-06T13:10:55;15.13;;;8.73;;
6828;SDS011;17930;48.592;8.868;2024-03-06T13:13:22;15.00;;;8.67;;
6828;SDS011;17930;48.592;8.868;2024-03-06T13:15:50;15.83;;;9.00;;
6828;SDS011;17930;48.592;8.868;2024-03-06T13:18:16;13.47;;;8.07;;
6828;SDS011;17930;48.592;8.868;2024-03-06T13:20:43;13.63;;;8.23;;
6828;SDS011;17930;48.592;8.868;2024-03-06T13:23:10;13.77;;;8.67;;
6828;SDS011;17930;48.592;8.868;2024-03-06T13:25:37;13.00;;;8.83;;
6828;SDS011;17930;48.592;8.868;2024-03-06T13:28:10;15.40;;;9.73;;
6828;SDS011;17930;48.592;8.868;2024-03-06T13:30:37;15.00;;;8.83;;
6828;SDS011;17930;48.592;8.868;2024-03-06T13:33:04;14.33;;;9.27;;
6828;SDS011;17930;48.592;8.868;2024-03-06T13:35:32;15.13;;;10.23;;
6828;SDS011;17930;48.592;8.868;2024-03-06T13:38:00;13.37;;;9.97;;
6828;SDS011;17930;48.592;8.868;2024-03-06T13:40:28;15.90;;;10.07;;
6828;SDS011;17930;48.592;8.868;2024-03-06T13:42:55;15.00;;;8.93;;
6828;SDS011;17930;48.592;8.868;2024-03-06T13:45:22;12.97;;;9.00;;
6828;SDS011;17930;48.592;8.868;2024-03-06T13:47:49;15.47;;;9.77;;
6828;SDS011;17930;48.592;8.868;2024-03-06T13:50:16;16.10;;;9.60;;
6828;SDS011;17930;48.592;8.868;2024-03-06T13:52:43;13.83;;;9.13;;
6828;SDS011;17930;48.592;8.868;2024-03-06T13:55:10;15.27;;;9.53;;
6828;SDS011;17930;48.592;8.868;2024-03-06T13:57:37;15.73;;;10.83;;
6828;SDS011;17930;48.592;8.868;2024-03-06T14:00:05;14.97;;;10.27;;
6828;SDS011;17930;48.592;8.868;2024-03-06T14:02:38;14.00;;;8.87;;
6828;SDS011;17930;48.592;8.868;2024-03-06T14:05:06;16.27;;;9.33;;
6828;SDS011;17930;48.592;8.868;2024-03-06T14:07:33;14.83;;;9.57;;
6828;SDS011;17930;48.592;8.868;2024-03-06T14:10:00;16.20;;;9.63;;
6828;SDS011;17930;48.592;8.868;2024-03-06T14:12:27;16.50;;;9.77;;
6828;SDS011;17930;48.592;8.868;2024-03-06T14:14:54;16.40;;;9.67;;
6828;SDS011;17930;48.592;8.868;2024-03-06T14:17:21;14.60;;;9.07;;
6828;SDS011;17930;48.592;8.868;2024-03-06T14:19:49;14.20;;;9.60;;
6828;SDS011;17930;48.592;8.868;2024-03-06T14:22:15;15.83;;;9.83;;
6828;SDS011;17930;48.592;8.868;2024-03-06T14:24:42;16.20;;;10.30;;
6828;SDS011;17930;48.592;8.868;2024-03-06T14:27:09;15.10;;;9.23;;
6828;SDS011;17930;48.592;8.868;2024-03-06T14:29:36;12.10;;;8.23;;
6828;SDS011;17930;48.592;8.868;2024-03-06T14:32:03;14.67;;;9.67;;
6828;SDS011;17930;48.592;8.868;2024-03-06T14:34:30;18.30;;;11.07;;
6828;SDS011;17930;48.592;8.868;2024-03-06T14:36:58;16.03;;;9.63;;
6828;SDS011;17930;48.592;8.868;2024-03-06T14:39:25;19.27;;;11.10;;
6828;SDS011;17930;48.592;8.868;2024-03-06T14:41:52;16.93;;;10.67;;
6828;SDS011;17930;48.592;8.868;2024-03-06T14:44:19;20.23;;;12.50;;
6828;SDS011;17930;48.592;8.868;2024-03-06T14:46:46;19.60;;;11.80;;
6828;SDS011;17930;48.592;8.868;2024-03-06T14:49:13;17.33;;;10.37;;
6828;SDS011;17930;48.592;8.868;2024-03-06T14:51:42;18.63;;;11.60;;
6828;SDS011;17930;48.592;8.868;2024-03-06T14:54:10;21.30;;;11.50;;
6828;SDS011;17930;48.592;8.868;2024-03-06T14:56:37;18.40;;;11.67;;
6828;SDS011;17930;48.592;8.868;2024-03-06T14:59:03;17.17;;;10.90;;